YFC80 WSSL-WSSL

Flight info

Callsign YFC80
Flight time 0h 12m
Altitude 10500
Route LATA CCTS
Aircraft DA40/L-V/N

Departure

Time 2026-04-17 14:18
Airport Seletar Airport (WSSL)

Arrival

Time 2026-04-17 14:30
Airport Seletar Airport (WSSL)
Time Latitude Longitude Altitude Speed Heading
2026-04-17 14:06 1.41439 103.86372 49 ft 0 kts 149°
2026-04-17 14:08 1.41426 103.86379 49 ft 7 kts 150°
2026-04-17 14:08 1.41415 103.86401 49 ft 4 kts 40°
2026-04-17 14:08 1.41460 103.86433 49 ft 10 kts 48°
2026-04-17 14:08 1.41508 103.86473 49 ft 6 kts 34°
2026-04-17 14:09 1.41521 103.86482 49 ft 0 kts 12°
2026-04-17 14:14 1.41534 103.86488 53 ft 6 kts 33°
2026-04-17 14:14 1.41568 103.86514 49 ft 2 kts 64°
2026-04-17 14:15 1.41560 103.86531 49 ft 6 kts 126°
2026-04-17 14:15 1.41546 103.86553 49 ft 0 kts 122°
2026-04-17 14:16 1.41545 103.86554 49 ft 4 kts 121°
2026-04-17 14:16 1.41512 103.86603 50 ft 10 kts 124°
2026-04-17 14:16 1.41504 103.86641 50 ft 3 kts 30°
2026-04-17 14:17 1.41655 103.86739 48 ft 52 kts 31°
2026-04-17 14:17 1.42032 103.86979 146 ft 70 kts 31°
2026-04-17 14:17 1.42472 103.87228 316 ft 75 kts 28°
2026-04-17 14:17 1.42958 103.87483 473 ft 82 kts 28°
2026-04-17 14:18 1.43526 103.87561 663 ft 87 kts 341°
2026-04-17 14:18 1.43929 103.87121 901 ft 86 kts 298°
2026-04-17 14:18 1.43970 103.86512 1012 ft 102 kts 239°
2026-04-17 14:18 1.43388 103.86043 1038 ft 113 kts 214°
2026-04-17 14:19 1.42727 103.85594 1044 ft 119 kts 213°
2026-04-17 14:19 1.42022 103.85115 1035 ft 124 kts 214°
2026-04-17 14:19 1.41312 103.84607 1035 ft 126 kts 216°
2026-04-17 14:19 1.40619 103.84085 1024 ft 120 kts 213°
2026-04-17 14:20 1.39948 103.84074 975 ft 88 kts 139°
2026-04-17 14:20 1.39626 103.84540 816 ft 81 kts 123°
2026-04-17 14:20 1.39383 103.85020 632 ft 76 kts 91°
2026-04-17 14:20 1.39669 103.85434 453 ft 74 kts 36°
2026-04-17 14:21 1.40076 103.85706 330 ft 70 kts 32°
2026-04-17 14:21 1.40493 103.85977 196 ft 72 kts 33°
2026-04-17 14:21 1.40914 103.86256 55 ft 70 kts 34°
2026-04-17 14:21 1.41240 103.86468 49 ft 54 kts 36°
2026-04-17 14:22 1.41628 103.86706 159 ft 70 kts 31°
2026-04-17 14:22 1.42072 103.86971 307 ft 79 kts 33°
2026-04-17 14:22 1.42552 103.87271 510 ft 82 kts 34°
2026-04-17 14:22 1.43113 103.87390 688 ft 87 kts 346°
2026-04-17 14:23 1.43568 103.87023 908 ft 87 kts 303°
2026-04-17 14:23 1.43879 103.86469 1042 ft 100 kts 282°
2026-04-17 14:23 1.43561 103.85864 1122 ft 105 kts 211°
2026-04-17 14:23 1.42929 103.85471 1091 ft 111 kts 211°
2026-04-17 14:24 1.42248 103.85052 1084 ft 114 kts 210°
2026-04-17 14:24 1.41559 103.84625 1041 ft 119 kts 211°
2026-04-17 14:24 1.40855 103.84185 997 ft 120 kts 211°
2026-04-17 14:24 1.40193 103.84133 957 ft 86 kts 136°
2026-04-17 14:25 1.39859 103.84593 783 ft 83 kts 123°
2026-04-17 14:25 1.39562 103.85107 527 ft 88 kts 95°
2026-04-17 14:25 1.39863 103.85571 330 ft 83 kts 34°
2026-04-17 14:25 1.40334 103.85875 211 ft 79 kts 34°
2026-04-17 14:26 1.40786 103.86173 81 ft 79 kts 34°
2026-04-17 14:26 1.41202 103.86444 49 ft 60 kts 32°
2026-04-17 14:26 1.41607 103.86707 65 ft 83 kts 32°
2026-04-17 14:26 1.42157 103.87063 84 ft 106 kts 33°
2026-04-17 14:27 1.42660 103.87290 534 ft 74 kts 353°
2026-04-17 14:27 1.43109 103.86983 661 ft 86 kts 313°
2026-04-17 14:27 1.43480 103.86520 851 ft 88 kts 301°
2026-04-17 14:27 1.43450 103.85945 1056 ft 90 kts 223°
2026-04-17 14:28 1.42958 103.85577 1304 ft 89 kts 212°
2026-04-17 14:28 1.42431 103.85232 1555 ft 91 kts 211°
2026-04-17 14:28 1.41827 103.84861 1600 ft 98 kts 211°
2026-04-17 14:28 1.41299 103.84533 1541 ft 85 kts 211°
2026-04-17 14:29 1.40811 103.84209 1376 ft 85 kts 211°
2026-04-17 14:29 1.40228 103.84145 1110 ft 87 kts 156°
2026-04-17 14:29 1.39808 103.84506 971 ft 77 kts 126°
2026-04-17 14:29 1.39611 103.84984 793 ft 74 kts 91°
2026-04-17 14:30 1.39788 103.85461 588 ft 77 kts 50°
2026-04-17 14:30 1.40206 103.85790 373 ft 73 kts 34°
2026-04-17 14:30 1.40620 103.86064 140 ft 69 kts 34°
2026-04-17 14:30 1.40976 103.86298 47 ft 49 kts 31°
2026-04-17 14:31 1.41289 103.86498 66 ft 68 kts 31°
2026-04-17 14:31 1.41711 103.86740 251 ft 71 kts 26°
2026-04-17 14:31 1.42165 103.86991 404 ft 78 kts 28°
2026-04-17 14:31 1.42663 103.87250 528 ft 84 kts 17°
2026-04-17 14:32 1.43191 103.87137 379 ft 80 kts 338°
2026-04-17 14:32 1.43272 103.86686 468 ft 88 kts 218°
2026-04-17 14:32 1.42735 103.86325 496 ft 90 kts 213°
2026-04-17 14:32 1.42231 103.85994 536 ft 87 kts 212°
2026-04-17 14:33 1.41700 103.85679 522 ft 89 kts 210°
2026-04-17 14:33 1.41185 103.85328 529 ft 88 kts 216°
2026-04-17 14:33 1.40705 103.84967 568 ft 87 kts 216°
2026-04-17 14:33 1.40165 103.84935 497 ft 78 kts 139°
2026-04-17 14:34 1.39902 103.85338 410 ft 65 kts 109°
2026-04-17 14:34 1.40071 103.85707 345 ft 65 kts 30°
2026-04-17 14:34 1.40445 103.85947 217 ft 64 kts 34°
2026-04-17 14:34 1.40822 103.86195 119 ft 64 kts 34°
2026-04-17 14:35 1.41188 103.86433 64 ft 61 kts 35°
2026-04-17 14:35 1.41453 103.86608 50 ft 16 kts 31°
2026-04-17 14:35 1.41501 103.86618 50 ft 5 kts 319°
2026-04-17 14:35 1.41546 103.86551 49 ft 7 kts 304°
2026-04-17 14:36 1.41568 103.86517 49 ft 4 kts 290°
2026-04-17 14:36 1.41570 103.86489 49 ft 5 kts 224°
2026-04-17 14:36 1.41525 103.86459 49 ft 10 kts 211°
2026-04-17 14:36 1.41478 103.86428 49 ft 5 kts 234°
2026-04-17 14:37 1.41473 103.86396 49 ft 6 kts 240°
2026-04-17 14:37 1.41455 103.86377 49 ft 2 kts 154°
2026-04-17 14:37 1.41446 103.86384 49 ft 0 kts 149°